Wetterdaten: Woche 05.07.10 - 11.07.10 (KW27)
Datum Zeit Temp. A. Feuchte A. Luftdruck Regen Wind Richtung Taupunkt Windchill Windben
05.07.2010 00:00 20,6 C 59 % 1014,0 hPa 0,0 l/m 0,5 km/h SW 12,2 C 20,6 C 5,6 km/h
05.07.2010 01:00 21,0 C 62 % 1013,4 hPa 0,0 l/m 1,4 km/h S 13,5 C 21,0 C 6,8 km/h
05.07.2010 02:00 22,3 C 71 % 1013,1 hPa 0,0 l/m 2,4 km/h SO 16,6 C 22,3 C 18,5 km/h
05.07.2010 03:00 22,8 C 69 % 1013,0 hPa 0,0 l/m 2,8 km/h NW 16,9 C 22,8 C 14,5 km/h
05.07.2010 04:00 22,5 C 71 % 1013,0 hPa 0,0 l/m 2,7 km/h S 17,0 C 22,5 C 12,1 km/h
05.07.2010 05:00 22,1 C 73 % 1013,3 hPa 0,0 l/m 4,1 km/h N-NW 17,0 C 22,1 C 15,3 km/h
05.07.2010 06:00 21,9 C 74 % 1013,8 hPa 0,0 l/m 5,6 km/h NW 17,0 C 21,9 C 16,9 km/h
05.07.2010 07:00 22,1 C 73 % 1014,3 hPa 0,0 l/m 4,4 km/h NW 17,1 C 22,1 C 10,9 km/h
05.07.2010 08:00 22,0 C 74 % 1015,0 hPa 0,0 l/m 4,4 km/h NW 17,1 C 22,0 C 11,7 km/h
05.07.2010 09:00 22,9 C 70 % 1015,3 hPa 0,0 l/m 5,1 km/h N-NW 17,2 C 22,8 C 12,9 km/h
05.07.2010 10:00 24,0 C 64 % 1015,3 hPa 0,0 l/m 4,5 km/h NW 16,8 C 24,0 C 12,5 km/h
05.07.2010 11:00 25,1 C 60 % 1015,3 hPa 0,0 l/m 5,4 km/h NW 16,8 C 25,1 C 16,9 km/h
05.07.2010 12:00 28,0 C 52 % 1015,0 hPa 0,0 l/m 4,4 km/h NW 17,3 C 28,0 C 11,3 km/h
05.07.2010 13:00 28,7 C 50 % 1014,7 hPa 0,0 l/m 4,9 km/h NW 17,3 C 28,7 C 14,5 km/h
05.07.2010 14:00 29,2 C 48 % 1014,1 hPa 0,0 l/m 4,7 km/h W-SW 16,9 C 29,2 C 14,9 km/h
05.07.2010 15:00 29,0 C 47 % 1013,8 hPa 0,0 l/m 5,3 km/h NW 16,4 C 28,9 C 16,5 km/h
05.07.2010 16:00 29,0 C 48 % 1013,4 hPa 0,0 l/m 4,0 km/h N-NO 16,6 C 29,0 C 14,5 km/h
05.07.2010 17:00 27,9 C 52 % 1013,2 hPa 0,0 l/m 3,4 km/h O-SO 17,1 C 27,9 C 16,9 km/h
05.07.2010 18:00 26,4 C 56 % 1013,5 hPa 0,0 l/m 2,9 km/h NW 16,8 C 26,4 C 11,7 km/h
05.07.2010 19:00 25,3 C 59 % 1013,9 hPa 0,0 l/m 3,0 km/h NW 16,7 C 25,3 C 9,3 km/h
05.07.2010 20:00 24,5 C 62 % 1014,0 hPa 0,0 l/m 1,9 km/h N-NW 16,8 C 24,5 C 6,8 km/h
05.07.2010 21:00 23,9 C 66 % 1014,2 hPa 0,0 l/m 1,2 km/h N-NO 17,0 C 23,9 C 7,6 km/h
05.07.2010 22:00 23,5 C 67 % 1014,4 hPa 0,0 l/m 1,0 km/h NO 17,0 C 23,5 C 5,2 km/h
05.07.2010 23:00 23,2 C 68 % 1014,4 hPa 0,0 l/m 0,6 km/h N-NW 17,0 C 23,2 C 4,4 km/h
06.07.2010 00:00 22,9 C 70 % 1014,5 hPa 0,0 l/m 0,8 km/h S 17,1 C 22,9 C 7,2 km/h
06.07.2010 01:00 22,6 C 71 % 1014,4 hPa 0,0 l/m 1,1 km/h W-SW 17,0 C 22,6 C 7,2 km/h
06.07.2010 02:00 21,6 C 75 % 1014,1 hPa 0,8 l/m 1,6 km/h SW 16,9 C 21,6 C 10,9 km/h
06.07.2010 03:00 20,9 C 73 % 1013,8 hPa 0,0 l/m 3,3 km/h SW 15,8 C 20,9 C 16,5 km/h
06.07.2010 04:00 21,2 C 71 % 1013,7 hPa 0,0 l/m 2,7 km/h S 15,7 C 21,2 C 13,7 km/h
06.07.2010 05:00 21,2 C 69 % 1014,1 hPa 0,0 l/m 3,9 km/h N-NO 15,4 C 21,2 C 16,1 km/h
06.07.2010 06:00 21,0 C 71 % 1014,2 hPa 0,0 l/m 4,2 km/h NW 15,6 C 21,0 C 16,1 km/h
06.07.2010 07:00 21,0 C 72 % 1014,6 hPa 0,0 l/m 3,2 km/h SO 15,6 C 21,0 C 13,3 km/h
06.07.2010 08:00 21,4 C 71 % 1014,9 hPa 0,0 l/m 3,5 km/h O 15,8 C 21,4 C 16,5 km/h
06.07.2010 09:00 22,0 C 70 % 1014,9 hPa 0,0 l/m 4,2 km/h NW 16,3 C 22,0 C 15,7 km/h
06.07.2010 10:00 23,3 C 68 % 1015,0 hPa 0,0 l/m 4,2 km/h SW 17,1 C 23,3 C 14,1 km/h
06.07.2010 11:00 23,4 C 64 % 1015,0 hPa 0,0 l/m 4,0 km/h W-SW 16,3 C 23,4 C 13,7 km/h
06.07.2010 12:00 21,1 C 69 % 1015,7 hPa 0,0 l/m 7,3 km/h NW 15,2 C 20,8 C 18,1 km/h
06.07.2010 13:00 20,7 C 72 % 1015,8 hPa 0,0 l/m 4,1 km/h NW 15,5 C 20,7 C 12,0 km/h
06.07.2010 14:00 21,6 C 74 % 1015,5 hPa 0,3 l/m 2,5 km/h S-SO 16,8 C 21,6 C 9,7 km/h
06.07.2010 15:00 23,8 C 65 % 1015,0 hPa 0,0 l/m 3,6 km/h S 16,8 C 23,8 C 13,7 km/h
06.07.2010 16:00 22,0 C 68 % 1015,6 hPa 0,5 l/m 4,5 km/h N-NW 15,7 C 22,0 C 16,1 km/h
06.07.2010 17:00 22,0 C 65 % 1016,4 hPa 0,0 l/m 7,5 km/h NW 15,1 C 21,5 C 19,7 km/h
06.07.2010 18:00 20,4 C 68 % 1017,0 hPa 0,0 l/m 4,8 km/h NW 14,3 C 20,4 C 18,5 km/h
06.07.2010 19:00 19,8 C 69 % 1017,2 hPa 0,0 l/m 5,7 km/h NW 13,9 C 19,7 C 14,1 km/h
06.07.2010 20:00 19,1 C 66 % 1018,3 hPa 0,0 l/m 5,7 km/h NW 12,7 C 19,0 C 14,9 km/h
06.07.2010 21:00 18,3 C 65 % 1019,3 hPa 0,0 l/m 4,5 km/h NW 11,6 C 18,3 C 10,9 km/h
06.07.2010 22:00 17,1 C 64 % 1019,8 hPa 0,0 l/m 4,4 km/h NW 10,3 C 17,1 C 11,3 km/h
06.07.2010 23:00 16,5 C 65 % 1020,1 hPa 0,0 l/m 1,9 km/h NW 9,8 C 16,5 C 7,6 km/h
07.07.2010 00:00 16,2 C 66 % 1020,6 hPa 0,0 l/m 2,6 km/h NW 9,9 C 16,2 C 8,4 km/h
07.07.2010 01:00 16,0 C 67 % 1020,6 hPa 0,0 l/m 2,0 km/h NW 9,7 C 16,0 C 8,0 km/h
07.07.2010 02:00 15,8 C 67 % 1020,4 hPa 0,0 l/m 2,0 km/h O 9,7 C 15,8 C 7,6 km/h
07.07.2010 03:00 15,7 C 67 % 1020,2 hPa 0,0 l/m 2,2 km/h NW 9,5 C 15,7 C 10,4 km/h
07.07.2010 04:00 15,4 C 68 % 1020,2 hPa 0,0 l/m 2,7 km/h NW 9,5 C 15,4 C 11,3 km/h
07.07.2010 05:00 15,2 C 69 % 1020,4 hPa 0,0 l/m 2,8 km/h NW 9,5 C 15,2 C 8,4 km/h
07.07.2010 06:00 15,5 C 68 % 1020,6 hPa 0,0 l/m 3,4 km/h W-NW 9,6 C 15,5 C 14,9 km/h
07.07.2010 07:00 16,0 C 67 % 1021,1 hPa 0,0 l/m 3,1 km/h W-NW 9,9 C 16,0 C 12,5 km/h
07.07.2010 08:00 16,6 C 66 % 1021,3 hPa 0,0 l/m 3,1 km/h NW 10,3 C 16,6 C 10,9 km/h
07.07.2010 09:00 17,9 C 62 % 1021,3 hPa 0,0 l/m 6,5 km/h W-NW 10,5 C 17,7 C 17,3 km/h
07.07.2010 10:00 19,3 C 57 % 1021,2 hPa 0,0 l/m 8,0 km/h NW 10,5 C 18,6 C 18,5 km/h
07.07.2010 11:00 20,9 C 52 % 1021,3 hPa 0,0 l/m 7,6 km/h N-NW 10,7 C 20,4 C 18,5 km/h
07.07.2010 12:00 22,3 C 46 % 1021,3 hPa 0,0 l/m 6,5 km/h N-NO 10,0 C 22,1 C 17,3 km/h
07.07.2010 13:00 23,2 C 42 % 1021,2 hPa 0,0 l/m 8,5 km/h W-NW 9,6 C 22,5 C 21,3 km/h
07.07.2010 14:00 24,0 C 41 % 1021,1 hPa 0,0 l/m 7,8 km/h W-NW 9,8 C 23,7 C 18,1 km/h
07.07.2010 15:00 24,5 C 39 % 1020,9 hPa 0,0 l/m 7,6 km/h N-NW 9,6 C 24,2 C 19,3 km/h
07.07.2010 16:00 24,2 C 39 % 1020,8 hPa 0,0 l/m 7,3 km/h N-NW 9,2 C 23,9 C 16,9 km/h
07.07.2010 17:00 24,1 C 39 % 1020,5 hPa 0,0 l/m 6,3 km/h N 9,1 C 24,0 C 16,9 km/h
07.07.2010 18:00 22,6 C 41 % 1020,6 hPa 0,0 l/m 5,5 km/h NW 8,7 C 22,6 C 13,3 km/h
07.07.2010 19:00 22,1 C 42 % 1020,7 hPa 0,0 l/m 4,1 km/h NO 8,5 C 22,1 C 10,9 km/h
07.07.2010 20:00 21,4 C 44 % 1020,9 hPa 0,0 l/m 1,9 km/h N-NO 8,6 C 21,4 C 6,0 km/h
07.07.2010 21:00 19,8 C 50 % 1021,6 hPa 0,0 l/m 0,0 km/h N 9,1 C 19,8 C 1,2 km/h
07.07.2010 22:00 18,0 C 55 % 1022,0 hPa 0,0 l/m 0,1 km/h N 8,8 C 18,0 C 0,8 km/h
07.07.2010 23:00 17,2 C 55 % 1022,4 hPa 0,0 l/m 0,1 km/h N 7,9 C 17,2 C 1,6 km/h
08.07.2010 00:00 16,4 C 59 % 1022,7 hPa 0,0 l/m 0,1 km/h N 8,4 C 16,4 C 1,6 km/h
08.07.2010 01:00 14,6 C 66 % 1022,7 hPa 0,0 l/m 0,0 km/h N 8,4 C 14,6 C 0,8 km/h
08.07.2010 02:00 13,4 C 71 % 1022,6 hPa 0,0 l/m 0,0 km/h N 8,2 C 13,4 C 1,6 km/h
08.07.2010 03:00 13,0 C 72 % 1022,2 hPa 0,0 l/m 0,1 km/h N 8,1 C 13,0 C 2,4 km/h
08.07.2010 04:00 13,3 C 71 % 1022,1 hPa 0,0 l/m 0,7 km/h N 8,0 C 13,3 C 6,0 km/h
08.07.2010 05:00 13,8 C 68 % 1022,1 hPa 0,0 l/m 0,3 km/h N 8,0 C 13,8 C 3,2 km/h
08.07.2010 06:00 14,1 C 71 % 1022,3 hPa 0,0 l/m 0,0 km/h N 8,8 C 14,1 C 1,2 km/h
08.07.2010 07:00 14,9 C 72 % 1022,3 hPa 0,0 l/m 0,2 km/h NW 9,8 C 14,9 C 1,2 km/h
08.07.2010 08:00 17,4 C 62 % 1022,6 hPa 0,0 l/m 2,2 km/h N-NW 10,0 C 17,4 C 6,8 km/h
08.07.2010 09:00 19,1 C 56 % 1022,6 hPa 0,0 l/m 1,1 km/h N 10,0 C 19,1 C 4,8 km/h
08.07.2010 10:00 20,7 C 51 % 1022,5 hPa 0,0 l/m 2,3 km/h N 10,0 C 20,7 C 6,8 km/h
08.07.2010 11:00 23,5 C 44 % 1022,1 hPa 0,0 l/m 3,0 km/h N-NW 10,5 C 23,5 C 10,1 km/h
08.07.2010 12:00 26,2 C 38 % 1022,0 hPa 0,0 l/m 3,3 km/h NW 10,6 C 26,2 C 9,7 km/h
08.07.2010 13:00 26,7 C 39 % 1021,8 hPa 0,0 l/m 3,4 km/h N-NW 11,4 C 26,7 C 9,7 km/h
08.07.2010 14:00 28,3 C 38 % 1021,3 hPa 0,0 l/m 3,3 km/h N-NW 12,4 C 28,3 C 9,7 km/h
08.07.2010 15:00 28,9 C 36 % 1020,9 hPa 0,0 l/m 3,5 km/h NO 12,4 C 28,9 C 9,3 km/h
08.07.2010 16:00 28,7 C 36 % 1020,6 hPa 0,0 l/m 2,9 km/h N-NO 12,2 C 28,7 C 9,3 km/h
08.07.2010 17:00 28,2 C 37 % 1020,2 hPa 0,0 l/m 1,6 km/h N-NW 11,9 C 28,2 C 6,0 km/h
08.07.2010 18:00 26,5 C 39 % 1020,1 hPa 0,0 l/m 1,8 km/h NW 11,5 C 26,5 C 5,6 km/h
08.07.2010 19:00 25,4 C 42 % 1020,1 hPa 0,0 l/m 0,3 km/h N 11,6 C 25,4 C 2,8 km/h
08.07.2010 20:00 24,5 C 46 % 1020,1 hPa 0,0 l/m 0,1 km/h N 11,9 C 24,5 C 1,6 km/h
08.07.2010 21:00 22,0 C 55 % 1020,7 hPa 0,0 l/m 0,0 km/h N 12,4 C 22,0 C 0,0 km/h
08.07.2010 22:00 19,5 C 62 % 1021,0 hPa 0,0 l/m 0,0 km/h N 12,1 C 19,5 C 0,8 km/h
08.07.2010 23:00 17,8 C 68 % 1021,1 hPa 0,0 l/m 0,0 km/h N 11,7 C 17,8 C 1,6 km/h
09.07.2010 00:00 17,0 C 69 % 1021,1 hPa 0,0 l/m 0,1 km/h N 11,3 C 17,0 C 2,4 km/h
09.07.2010 01:00 16,5 C 70 % 1021,0 hPa 0,0 l/m 0,2 km/h N 11,1 C 16,5 C 4,0 km/h
09.07.2010 02:00 15,9 C 71 % 1021,1 hPa 0,0 l/m 0,0 km/h N 10,7 C 15,9 C 2,0 km/h
09.07.2010 03:00 15,3 C 73 % 1021,2 hPa 0,0 l/m 0,1 km/h N 10,5 C 15,3 C 3,6 km/h
09.07.2010 04:00 14,7 C 75 % 1021,2 hPa 0,0 l/m 0,3 km/h N 10,3 C 14,7 C 4,0 km/h
09.07.2010 05:00 14,4 C 75 % 1021,4 hPa 0,0 l/m 0,4 km/h SW 10,0 C 14,4 C 6,0 km/h
09.07.2010 06:00 14,7 C 75 % 1021,5 hPa 0,0 l/m 1,5 km/h S-SW 10,3 C 14,7 C 6,9 km/h
09.07.2010 07:00 16,1 C 74 % 1021,6 hPa 0,0 l/m 0,2 km/h N 11,5 C 16,1 C 2,4 km/h
09.07.2010 08:00 17,9 C 70 % 1021,8 hPa 0,0 l/m 0,0 km/h N 12,3 C 17,9 C 1,2 km/h
09.07.2010 09:00 20,2 C 62 % 1021,8 hPa 0,0 l/m 0,1 km/h N 12,6 C 20,2 C 2,0 km/h
09.07.2010 10:00 23,0 C 56 % 1021,9 hPa 0,0 l/m 0,4 km/h N 13,8 C 23,0 C 3,6 km/h
09.07.2010 11:00 26,2 C 47 % 1021,7 hPa 0,0 l/m 0,8 km/h N 14,0 C 26,2 C 4,0 km/h
09.07.2010 12:00 29,0 C 38 % 1021,3 hPa 0,0 l/m 1,0 km/h N-NO 13,3 C 29,0 C 4,0 km/h
09.07.2010 13:00 30,2 C 33 % 1020,8 hPa 0,0 l/m 1,4 km/h NO 12,0 C 30,2 C 6,0 km/h
09.07.2010 14:00 28,9 C 35 % 1020,5 hPa 0,0 l/m 2,4 km/h O-NO 12,0 C 28,9 C 6,8 km/h
09.07.2010 15:00 29,6 C 33 % 1020,2 hPa 0,0 l/m 1,5 km/h NO 11,6 C 29,6 C 4,0 km/h
09.07.2010 16:00 30,7 C 33 % 1019,8 hPa 0,0 l/m 1,5 km/h NO 12,3 C 30,7 C 4,8 km/h
09.07.2010 17:00 30,3 C 34 % 1019,8 hPa 0,0 l/m 1,3 km/h NO 12,6 C 30,3 C 4,8 km/h
09.07.2010 18:00 28,8 C 36 % 1019,7 hPa 0,0 l/m 1,1 km/h N 12,3 C 28,8 C 4,4 km/h
09.07.2010 19:00 27,8 C 39 % 1019,8 hPa 0,0 l/m 0,8 km/h O-NO 12,6 C 27,8 C 3,2 km/h
09.07.2010 20:00 27,0 C 46 % 1019,7 hPa 0,0 l/m 0,0 km/h N 14,4 C 27,0 C 0,4 km/h
09.07.2010 21:00 24,2 C 53 % 1020,3 hPa 0,0 l/m 0,0 km/h N 14,0 C 24,2 C 2,0 km/h
09.07.2010 22:00 22,0 C 58 % 1020,7 hPa 0,0 l/m 0,0 km/h N 13,4 C 22,0 C 1,6 km/h
09.07.2010 23:00 20,5 C 63 % 1020,8 hPa 0,0 l/m 0,1 km/h N 13,1 C 20,5 C 3,6 km/h
10.07.2010 00:00 19,7 C 65 % 1021,0 hPa 0,0 l/m 0,0 km/h N 12,9 C 19,7 C 1,6 km/h
10.07.2010 01:00 18,9 C 67 % 1020,7 hPa 0,0 l/m 0,0 km/h N 12,6 C 18,9 C 1,6 km/h
10.07.2010 02:00 18,0 C 70 % 1020,7 hPa 0,0 l/m 0,0 km/h N 12,4 C 18,0 C 0,8 km/h
10.07.2010 03:00 17,3 C 72 % 1020,5 hPa 0,0 l/m 0,2 km/h N 12,1 C 17,3 C 3,2 km/h
10.07.2010 04:00 16,8 C 73 % 1020,5 hPa 0,0 l/m 0,1 km/h N 11,8 C 16,8 C 2,4 km/h
10.07.2010 05:00 16,3 C 74 % 1020,6 hPa 0,0 l/m 0,0 km/h N 11,7 C 16,3 C 1,6 km/h
10.07.2010 06:00 16,3 C 77 % 1020,8 hPa 0,0 l/m 0,1 km/h N 12,2 C 16,3 C 2,4 km/h
10.07.2010 07:00 17,6 C 75 % 1021,1 hPa 0,0 l/m 0,0 km/h N 13,1 C 17,6 C 0,0 km/h
10.07.2010 08:00 19,3 C 72 % 1021,3 hPa 0,0 l/m 0,0 km/h N 14,2 C 19,3 C 0,4 km/h
10.07.2010 09:00 21,3 C 68 % 1021,4 hPa 0,0 l/m 0,1 km/h N 15,1 C 21,3 C 1,6 km/h
10.07.2010 10:00 23,4 C 59 % 1021,3 hPa 0,0 l/m 0,4 km/h N 14,9 C 23,4 C 3,6 km/h
10.07.2010 11:00 27,5 C 45 % 1020,8 hPa 0,0 l/m 0,6 km/h N 14,5 C 27,5 C 3,6 km/h
10.07.2010 12:00 30,9 C 37 % 1020,2 hPa 0,0 l/m 0,8 km/h SW 14,6 C 30,9 C 4,4 km/h
10.07.2010 13:00 32,2 C 34 % 1019,8 hPa 0,0 l/m 0,6 km/h N-NW 14,3 C 32,2 C 3,2 km/h
10.07.2010 14:00 33,1 C 31 % 1019,3 hPa 0,0 l/m 1,3 km/h S-SW 13,5 C 33,1 C 5,2 km/h
10.07.2010 15:00 32,4 C 32 % 1019,0 hPa 0,0 l/m 1,1 km/h NO 13,3 C 32,4 C 5,2 km/h
10.07.2010 16:00 32,6 C 30 % 1018,6 hPa 0,0 l/m 1,5 km/h NO 12,4 C 32,6 C 4,4 km/h
10.07.2010 17:00 32,8 C 28 % 1018,3 hPa 0,0 l/m 1,5 km/h N-NO 12,0 C 32,8 C 4,8 km/h
10.07.2010 18:00 31,2 C 31 % 1018,0 hPa 0,0 l/m 1,2 km/h O-NO 11,9 C 31,2 C 4,4 km/h
10.07.2010 19:00 29,9 C 35 % 1017,9 hPa 0,0 l/m 0,6 km/h N 12,7 C 29,9 C 2,8 km/h
10.07.2010 20:00 28,5 C 42 % 1017,8 hPa 0,0 l/m 0,0 km/h N 14,3 C 28,5 C 0,0 km/h
10.07.2010 21:00 25,8 C 49 % 1018,0 hPa 0,0 l/m 0,0 km/h N 14,1 C 25,8 C 0,8 km/h
10.07.2010 22:00 23,2 C 56 % 1018,3 hPa 0,0 l/m 0,1 km/h N 13,7 C 23,2 C 2,0 km/h
10.07.2010 23:00 21,5 C 59 % 1018,2 hPa 0,0 l/m 0,1 km/h N 13,1 C 21,5 C 2,4 km/h
11.07.2010 00:00 20,9 C 61 % 1018,2 hPa 0,0 l/m 0,2 km/h N 13,0 C 20,9 C 2,8 km/h
11.07.2010 01:00 20,3 C 63 % 1018,1 hPa 0,0 l/m 0,0 km/h N 13,0 C 20,3 C 0,4 km/h
11.07.2010 02:00 19,5 C 66 % 1017,8 hPa 0,0 l/m 0,0 km/h N 12,9 C 19,5 C 0,4 km/h
11.07.2010 03:00 18,6 C 69 % 1017,6 hPa 0,0 l/m 0,0 km/h N 12,7 C 18,6 C 0,4 km/h
11.07.2010 04:00 17,8 C 72 % 1017,3 hPa 0,0 l/m 0,1 km/h N 12,6 C 17,8 C 1,2 km/h
11.07.2010 05:00 17,4 C 73 % 1017,3 hPa 0,0 l/m 0,1 km/h N 12,5 C 17,4 C 1,6 km/h
11.07.2010 06:00 17,5 C 75 % 1017,4 hPa 0,0 l/m 0,0 km/h N 12,9 C 17,5 C 0,4 km/h
11.07.2010 07:00 18,4 C 76 % 1017,6 hPa 0,0 l/m 0,0 km/h N 14,0 C 18,4 C 0,0 km/h
11.07.2010 08:00 20,5 C 72 % 1017,6 hPa 0,0 l/m 0,1 km/h N 15,2 C 20,5 C 1,6 km/h
11.07.2010 09:00 23,3 C 65 % 1017,6 hPa 0,0 l/m 0,5 km/h S 16,2 C 23,3 C 2,8 km/h
11.07.2010 10:00 25,5 C 59 % 1017,5 hPa 0,0 l/m 0,5 km/h S-SO 17,0 C 25,5 C 4,0 km/h
11.07.2010 11:00 28,8 C 51 % 1017,2 hPa 0,0 l/m 1,2 km/h O 17,7 C 28,8 C 4,4 km/h
11.07.2010 12:00 31,7 C 40 % 1016,9 hPa 0,0 l/m 1,5 km/h O 16,3 C 31,7 C 6,8 km/h
11.07.2010 13:00 32,2 C 39 % 1016,5 hPa 0,0 l/m 1,5 km/h O-NO 16,4 C 32,2 C 5,2 km/h
11.07.2010 14:00 32,7 C 36 % 1016,2 hPa 0,0 l/m 1,5 km/h O-NO 15,4 C 32,7 C 4,8 km/h
11.07.2010 15:00 33,3 C 35 % 1015,8 hPa 0,0 l/m 1,6 km/h O 15,6 C 33,3 C 5,6 km/h
11.07.2010 16:00 32,5 C 35 % 1015,4 hPa 0,0 l/m 3,1 km/h O-SO 15,1 C 32,5 C 6,8 km/h
11.07.2010 17:00 32,9 C 35 % 1015,1 hPa 0,0 l/m 1,3 km/h O 15,2 C 32,9 C 5,6 km/h
11.07.2010 18:00 31,8 C 36 % 1015,1 hPa 0,0 l/m 1,0 km/h O 14,8 C 31,8 C 4,4 km/h
11.07.2010 19:00 30,7 C 41 % 1015,3 hPa 0,0 l/m 0,9 km/h O 15,7 C 30,7 C 3,2 km/h
11.07.2010 20:00 29,5 C 48 % 1015,6 hPa 0,0 l/m 0,1 km/h N 17,2 C 29,5 C 0,8 km/h
11.07.2010 21:00 27,2 C 56 % 1015,8 hPa 0,0 l/m 0,0 km/h N 17,5 C 27,2 C 0,4 km/h
11.07.2010 22:00 24,5 C 64 % 1016,0 hPa 0,0 l/m 0,0 km/h N 17,1 C 24,5 C 0,0 km/h
11.07.2010 23:00 22,9 C 69 % 1015,9 hPa 0,0 l/m 0,0 km/h N 17,0 C 22,9 C 0,0 km/h
Min-Datum _ 08.07.10 10.07.10 05.07.10 - 07.07.10 - 07.07.10 08.07.10 07.07.10
_ Min-Zeit 03:15 17:45 03:30 - 21:00 - 23:15 03:15 21:15
Minimum _ 13,0 C 26 % 1012,9 hPa - 0,0 km/h - 7,8 C 13,0 C 0,0 km/h
Max-Datum _ 11.07.10 10.07.10 08.07.10 06.07.10 06.07.10 - 11.07.10 11.07.10 06.07.10
_ Max-Zeit 15:15 06:15 01:30 02:00 17:00 - 11:30 15:00 12:00
Maximum _ 34,0 C 77 % 1022,8 hPa 0,8 l/m 10,3 km/h
NW
- 18,1 C 33,9 C 29,0 km/h
NW
Durchschnitt _ 22,6 C 58 % 1018,5 hPa #1,6 l/m 2,1 km/h NW 13,2 C 22,5 C 7,3 km/h